createdAt,value
2022-10-16T00:01:22.042Z,12.00
2022-10-16T00:03:49.630Z,12.00
2022-10-16T00:06:19.107Z,11.90
2022-10-16T00:11:19.590Z,11.80
2022-10-16T00:13:47.303Z,11.90
2022-10-16T00:16:15.308Z,11.90
2022-10-16T00:18:42.593Z,11.80
2022-10-16T00:21:12.301Z,11.70
2022-10-16T00:23:39.229Z,11.60
2022-10-16T00:26:08.598Z,11.70
2022-10-16T00:28:36.274Z,11.70
2022-10-16T00:31:11.811Z,11.50
2022-10-16T00:33:40.360Z,11.60
2022-10-16T00:36:08.880Z,11.70
2022-10-16T00:43:36.614Z,11.50
2022-10-16T00:46:05.656Z,11.40
2022-10-16T00:48:32.740Z,11.30
2022-10-16T00:51:00.011Z,11.30
2022-10-16T00:53:28.388Z,11.30
2022-10-16T00:55:55.652Z,11.30
2022-10-16T00:58:22.750Z,11.50
2022-10-16T01:00:50.051Z,11.30
2022-10-16T01:03:28.815Z,11.20
2022-10-16T01:06:09.060Z,11.30
2022-10-16T01:08:46.315Z,11.20
2022-10-16T01:11:31.658Z,11.30
2022-10-16T01:14:06.691Z,11.10
2022-10-16T01:16:45.956Z,11.20
2022-10-16T01:19:32.093Z,11.10
2022-10-16T01:22:00.599Z,11.10
2022-10-16T01:24:30.551Z,11.10
2022-10-16T01:27:03.485Z,10.90
2022-10-16T01:29:42.050Z,11.00
2022-10-16T01:32:28.352Z,11.00
2022-10-16T01:34:57.859Z,11.00
2022-10-16T01:37:50.044Z,11.00
2022-10-16T01:40:19.965Z,11.00
2022-10-16T01:43:09.979Z,11.10
2022-10-16T01:45:37.947Z,10.90
2022-10-16T01:48:08.968Z,10.90
2022-10-16T01:50:41.113Z,10.80
2022-10-16T01:53:11.831Z,10.70
2022-10-16T01:55:44.921Z,10.80
2022-10-16T01:58:13.197Z,10.80
2022-10-16T02:00:44.022Z,10.80
2022-10-16T02:03:13.843Z,10.80
2022-10-16T02:08:08.203Z,10.50
2022-10-16T02:10:37.149Z,10.60
2022-10-16T02:13:09.995Z,10.70
2022-10-16T02:15:37.063Z,10.80
2022-10-16T02:18:06.226Z,10.70
2022-10-16T02:20:40.183Z,10.70
2022-10-16T02:23:09.843Z,10.70
2022-10-16T02:25:41.209Z,10.60
2022-10-16T02:28:10.508Z,10.60
2022-10-16T02:30:44.822Z,10.60
2022-10-16T02:33:14.712Z,10.70
2022-10-16T02:35:43.198Z,10.80
2022-10-16T02:40:43.711Z,10.60
2022-10-16T02:43:11.783Z,10.50
2022-10-16T02:45:38.872Z,10.40
2022-10-16T02:48:06.499Z,10.50
2022-10-16T02:50:33.427Z,10.50
2022-10-16T02:55:28.803Z,10.40
2022-10-16T02:57:56.070Z,10.50
2022-10-16T03:00:23.161Z,10.40
2022-10-16T03:02:50.203Z,10.30
2022-10-16T03:05:17.420Z,10.50
2022-10-16T03:07:44.333Z,10.50
2022-10-16T03:12:38.774Z,10.30
2022-10-16T03:15:06.187Z,10.30
2022-10-16T03:17:33.881Z,10.20
2022-10-16T03:20:00.776Z,10.10
2022-10-16T03:22:27.654Z,10.20
2022-10-16T03:24:54.546Z,10.30
2022-10-16T03:27:21.942Z,10.30
2022-10-16T03:29:48.765Z,10.30
2022-10-16T03:32:15.744Z,10.40
2022-10-16T03:37:09.967Z,10.20
2022-10-16T03:39:36.783Z,10.10
2022-10-16T03:44:31.254Z,10.20
2022-10-16T03:46:58.114Z,10.20
2022-10-16T03:49:24.946Z,10.20
2022-10-16T03:51:51.793Z,10.30
2022-10-16T03:54:18.639Z,10.20
2022-10-16T03:59:12.747Z,10.30
2022-10-16T04:01:39.574Z,10.30
2022-10-16T04:06:33.660Z,10.30
2022-10-16T04:11:28.495Z,10.20
2022-10-16T04:13:55.895Z,10.30
2022-10-16T04:16:22.779Z,10.30
2022-10-16T04:18:49.660Z,10.40
2022-10-16T04:21:16.651Z,10.40
2022-10-16T04:23:44.250Z,10.30
2022-10-16T04:26:11.530Z,10.30
2022-10-16T04:28:38.567Z,10.30
2022-10-16T04:31:06.227Z,10.30
2022-10-16T04:33:33.379Z,10.20
2022-10-16T04:36:01.551Z,10.20
2022-10-16T04:38:28.689Z,10.40
2022-10-16T04:40:55.609Z,10.50
2022-10-16T04:43:23.217Z,10.50
2022-10-16T04:45:51.798Z,10.50
2022-10-16T04:48:19.403Z,10.40
2022-10-16T04:53:18.745Z,10.50
2022-10-16T04:55:45.704Z,10.60
2022-10-16T05:05:37.586Z,10.60
2022-10-16T05:08:05.100Z,10.70
2022-10-16T05:10:32.065Z,10.60
2022-10-16T05:12:59.121Z,10.60
2022-10-16T05:15:26.312Z,10.70
2022-10-16T05:17:56.915Z,10.80
2022-10-16T05:20:24.282Z,10.80
2022-10-16T05:22:51.259Z,10.80
2022-10-16T05:25:18.097Z,10.80
2022-10-16T05:27:48.254Z,10.90
2022-10-16T05:30:15.198Z,11.00
2022-10-16T05:32:42.063Z,11.00
2022-10-16T05:35:11.895Z,11.10
2022-10-16T05:37:39.727Z,11.20
2022-10-16T05:40:07.174Z,11.10
2022-10-16T05:42:34.063Z,11.10
2022-10-16T05:45:01.580Z,11.10
2022-10-16T05:47:28.852Z,11.20
2022-10-16T05:49:56.934Z,11.20
2022-10-16T05:52:23.749Z,11.10
2022-10-16T05:54:50.714Z,11.20
2022-10-16T05:57:17.585Z,11.10
2022-10-16T06:02:14.367Z,11.10
2022-10-16T06:04:41.482Z,11.30
2022-10-16T06:09:35.566Z,11.30
2022-10-16T06:12:02.769Z,11.20
2022-10-16T06:16:57.099Z,11.50
2022-10-16T06:19:24.235Z,11.50
2022-10-16T06:21:51.062Z,11.50
2022-10-16T06:24:17.999Z,11.30
2022-10-16T06:26:44.887Z,11.30
2022-10-16T06:29:11.786Z,11.40
2022-10-16T06:31:38.682Z,11.50
2022-10-16T06:34:10.626Z,11.50
2022-10-16T06:36:38.153Z,11.50
2022-10-16T06:39:05.805Z,11.60
2022-10-16T06:44:00.224Z,11.80
2022-10-16T06:46:27.683Z,11.90
2022-10-16T06:48:55.661Z,11.80
2022-10-16T06:51:23.954Z,11.90
2022-10-16T06:54:08.419Z,12.00
2022-10-16T06:56:35.691Z,11.90
2022-10-16T06:59:03.862Z,12.10
2022-10-16T07:01:31.318Z,12.20
2022-10-16T07:03:58.606Z,12.30
2022-10-16T07:06:35.125Z,12.40
2022-10-16T07:09:04.632Z,12.70
2022-10-16T07:11:31.614Z,12.80
2022-10-16T07:13:58.753Z,13.20
2022-10-16T07:16:28.838Z,13.90
2022-10-16T07:19:00.260Z,14.50
2022-10-16T07:21:31.048Z,15.10
2022-10-16T07:24:00.514Z,14.40
2022-10-16T07:26:28.942Z,14.60
2022-10-16T07:28:56.075Z,13.90
2022-10-16T07:31:23.977Z,14.00
2022-10-16T07:33:51.940Z,13.80
2022-10-16T07:36:20.948Z,13.60
2022-10-16T07:38:48.797Z,13.60
2022-10-16T07:41:17.671Z,13.40
2022-10-16T07:43:48.771Z,13.50
2022-10-16T07:46:15.942Z,13.40
2022-10-16T07:48:46.596Z,13.60
2022-10-16T07:51:15.508Z,13.60
2022-10-16T07:56:10.425Z,14.00
2022-10-16T07:58:40.333Z,14.20
2022-10-16T08:01:09.671Z,14.80
2022-10-16T08:03:37.243Z,15.50
2022-10-16T08:06:05.410Z,15.70
2022-10-16T08:08:32.481Z,16.20
2022-10-16T08:10:59.446Z,16.20
2022-10-16T08:13:27.649Z,16.70
2022-10-16T08:15:55.622Z,16.60
2022-10-16T08:18:22.991Z,17.00
2022-10-16T08:20:56.633Z,17.90
2022-10-16T08:23:23.565Z,18.40
2022-10-16T08:25:50.420Z,18.10
2022-10-16T08:28:17.857Z,18.10
2022-10-16T08:30:44.796Z,18.20
2022-10-16T08:33:11.781Z,18.70
2022-10-16T08:35:38.856Z,19.20
2022-10-16T08:38:06.569Z,19.80
2022-10-16T08:40:35.642Z,20.10
2022-10-16T08:45:36.239Z,20.40
2022-10-16T08:48:14.999Z,20.40
2022-10-16T08:50:42.135Z,20.50
2022-10-16T08:53:19.549Z,21.00
2022-10-16T08:55:56.172Z,21.00
2022-10-16T08:58:27.646Z,20.60
2022-10-16T09:01:05.787Z,20.90
2022-10-16T09:04:00.135Z,20.90
2022-10-16T09:06:32.547Z,19.20
2022-10-16T09:09:18.349Z,19.90
2022-10-16T09:12:07.053Z,19.30
2022-10-16T09:14:57.861Z,18.80
2022-10-16T09:17:30.561Z,18.10
2022-10-16T09:20:27.160Z,17.90
2022-10-16T09:23:14.367Z,18.00
2022-10-16T09:25:44.815Z,18.30
2022-10-16T09:28:12.225Z,18.10
2022-10-16T09:30:40.533Z,17.80
2022-10-16T09:33:08.904Z,17.80
2022-10-16T09:35:47.141Z,17.50
2022-10-16T09:38:30.496Z,17.40
2022-10-16T09:41:02.415Z,17.50
2022-10-16T09:43:40.593Z,17.10
2022-10-16T09:46:37.253Z,17.30
2022-10-16T09:49:07.315Z,17.30
2022-10-16T09:51:36.725Z,17.60
2022-10-16T09:54:23.928Z,17.50
2022-10-16T09:59:24.906Z,17.90
2022-10-16T10:01:56.355Z,17.80
2022-10-16T10:04:29.818Z,17.90
2022-10-16T10:06:58.091Z,17.90
2022-10-16T10:09:40.321Z,17.80
2022-10-16T10:12:19.746Z,17.90
2022-10-16T10:14:51.591Z,18.00
2022-10-16T10:17:21.883Z,17.80
2022-10-16T10:19:51.944Z,17.70
2022-10-16T10:25:01.483Z,17.80
2022-10-16T10:27:37.632Z,17.80
2022-10-16T10:33:15.935Z,17.60
2022-10-16T10:36:09.296Z,17.60
2022-10-16T10:38:57.785Z,17.70
2022-10-16T10:41:31.555Z,17.80
2022-10-16T10:44:17.454Z,17.80
2022-10-16T10:46:59.007Z,18.10
2022-10-16T10:49:48.079Z,18.40
2022-10-16T10:52:35.623Z,18.70
2022-10-16T10:55:21.564Z,18.90
2022-10-16T10:58:09.956Z,19.20
2022-10-16T11:00:57.880Z,19.30
2022-10-16T11:03:45.976Z,19.20
2022-10-16T11:06:28.261Z,18.90
2022-10-16T11:09:01.726Z,18.90
2022-10-16T11:14:13.258Z,18.60
2022-10-16T11:17:05.269Z,18.60
2022-10-16T11:19:42.707Z,18.50
2022-10-16T11:22:20.535Z,18.30
2022-10-16T11:27:50.862Z,18.20
2022-10-16T11:30:27.032Z,18.10
2022-10-16T11:33:08.798Z,18.10
2022-10-16T11:36:05.152Z,17.90
2022-10-16T11:38:38.116Z,17.90
2022-10-16T11:41:30.495Z,18.00
2022-10-16T11:44:16.090Z,17.80
2022-10-16T11:46:59.188Z,17.90
2022-10-16T11:49:31.885Z,17.80
2022-10-16T11:52:36.813Z,18.00
2022-10-16T11:55:21.034Z,18.00
2022-10-16T11:57:59.993Z,17.90
2022-10-16T12:00:55.089Z,17.80
2022-10-16T12:03:40.003Z,18.00
2022-10-16T12:06:12.957Z,18.20
2022-10-16T12:08:40.972Z,18.30
2022-10-16T12:11:30.989Z,18.10
2022-10-16T12:14:12.944Z,18.10
2022-10-16T12:19:14.923Z,18.30
2022-10-16T12:21:42.846Z,18.20
2022-10-16T12:24:22.507Z,18.30
2022-10-16T12:26:52.067Z,18.40
2022-10-16T12:29:39.778Z,18.30
2022-10-16T12:32:46.606Z,18.30
2022-10-16T12:35:24.139Z,18.50
2022-10-16T12:37:52.299Z,19.00
2022-10-16T12:40:30.695Z,19.30
2022-10-16T12:45:35.093Z,19.40
2022-10-16T12:48:05.975Z,19.40
2022-10-16T12:50:38.162Z,19.50
2022-10-16T12:53:19.872Z,19.60
2022-10-16T12:56:04.539Z,19.90
2022-10-16T12:59:15.566Z,19.90
2022-10-16T13:01:48.628Z,20.00
2022-10-16T13:04:18.085Z,20.00
2022-10-16T13:07:04.936Z,20.40
2022-10-16T13:09:59.952Z,20.70
2022-10-16T13:13:11.704Z,21.00
2022-10-16T13:16:12.474Z,20.80
2022-10-16T13:19:00.859Z,20.80
2022-10-16T13:21:52.804Z,20.80
2022-10-16T13:24:37.827Z,20.70
2022-10-16T13:27:22.588Z,20.40
2022-10-16T13:29:56.384Z,20.00
2022-10-16T13:32:23.512Z,20.00
2022-10-16T13:34:50.702Z,19.60
2022-10-16T13:37:23.372Z,19.70
2022-10-16T13:39:51.810Z,19.60
2022-10-16T13:42:29.222Z,19.50
2022-10-16T13:44:57.543Z,19.20
2022-10-16T13:47:29.472Z,19.10
2022-10-16T13:50:00.976Z,19.00
2022-10-16T13:52:28.367Z,19.10
2022-10-16T13:54:59.382Z,19.10
2022-10-16T13:57:29.330Z,19.10
2022-10-16T13:59:56.678Z,19.20
2022-10-16T14:02:40.251Z,19.40
2022-10-16T14:05:11.705Z,19.50
2022-10-16T14:07:39.233Z,19.40
2022-10-16T14:10:19.372Z,19.40
2022-10-16T14:12:46.764Z,19.50
2022-10-16T14:15:19.918Z,19.50
2022-10-16T14:17:51.317Z,19.40
2022-10-16T14:20:19.012Z,19.30
2022-10-16T14:22:47.057Z,19.30
2022-10-16T14:25:28.683Z,19.20
2022-10-16T14:30:37.261Z,19.00
2022-10-16T14:35:40.274Z,18.90
2022-10-16T14:38:17.534Z,18.90
2022-10-16T14:40:49.464Z,18.90
2022-10-16T14:43:25.607Z,18.90
2022-10-16T14:45:56.676Z,18.80
2022-10-16T14:48:23.966Z,18.70
2022-10-16T14:50:51.170Z,18.70
2022-10-16T14:53:18.407Z,18.60
2022-10-16T14:55:45.886Z,18.50
2022-10-16T14:58:22.806Z,18.50
2022-10-16T15:00:50.603Z,18.50
2022-10-16T15:03:17.931Z,18.50
2022-10-16T15:05:44.982Z,18.60
2022-10-16T15:08:13.381Z,18.40
2022-10-16T15:10:43.936Z,18.30
2022-10-16T15:13:15.120Z,18.20
2022-10-16T15:15:45.344Z,18.10
2022-10-16T15:18:12.854Z,18.00
2022-10-16T15:20:40.702Z,18.00
2022-10-16T15:23:22.551Z,17.90
2022-10-16T15:25:54.806Z,17.80
2022-10-16T15:28:23.090Z,17.60
2022-10-16T15:30:55.279Z,17.50
2022-10-16T15:33:24.821Z,17.60
2022-10-16T15:35:53.047Z,17.60
2022-10-16T15:38:22.018Z,17.60
2022-10-16T15:40:49.610Z,17.60
2022-10-16T15:43:16.646Z,17.50
2022-10-16T15:45:44.257Z,17.50
2022-10-16T15:48:13.775Z,17.60
2022-10-16T15:53:11.672Z,17.50
2022-10-16T15:55:41.411Z,17.70
2022-10-16T16:00:36.934Z,17.50
2022-10-16T16:03:04.243Z,17.30
2022-10-16T16:05:31.423Z,17.40
2022-10-16T16:07:58.551Z,17.30
2022-10-16T16:10:25.652Z,17.30
2022-10-16T16:12:53.699Z,17.30
2022-10-16T16:15:22.352Z,17.40
2022-10-16T16:17:50.156Z,17.40
2022-10-16T16:20:17.532Z,17.30
2022-10-16T16:25:11.931Z,17.30
2022-10-16T16:27:39.633Z,17.30
2022-10-16T16:30:18.195Z,17.20
2022-10-16T16:32:47.135Z,17.30
2022-10-16T16:35:14.040Z,17.20
2022-10-16T16:37:40.979Z,17.10
2022-10-16T16:40:08.010Z,17.20
2022-10-16T16:42:35.550Z,17.10
2022-10-16T16:45:02.505Z,17.10
2022-10-16T16:47:29.675Z,17.10
2022-10-16T16:49:57.385Z,17.10
2022-10-16T16:52:24.327Z,17.10
2022-10-16T16:54:54.139Z,16.80
2022-10-16T16:57:21.750Z,16.80
2022-10-16T16:59:50.816Z,16.80
2022-10-16T17:02:18.304Z,16.80
2022-10-16T17:04:45.321Z,16.80
2022-10-16T17:07:12.179Z,16.60
2022-10-16T17:09:39.449Z,16.60
2022-10-16T17:12:09.804Z,16.60
2022-10-16T17:14:36.903Z,16.60
2022-10-16T17:17:03.935Z,16.60
2022-10-16T17:19:32.060Z,16.60
2022-10-16T17:21:59.185Z,16.50
2022-10-16T17:24:26.276Z,16.50
2022-10-16T17:26:53.331Z,16.60
2022-10-16T17:29:20.312Z,16.50
2022-10-16T17:31:49.953Z,16.50
2022-10-16T17:34:17.371Z,16.40
2022-10-16T17:39:17.764Z,16.40
2022-10-16T17:41:46.505Z,16.40
2022-10-16T17:44:23.806Z,16.30
2022-10-16T17:46:53.216Z,16.30
2022-10-16T17:49:21.270Z,16.20
2022-10-16T17:51:52.386Z,16.30
2022-10-16T17:54:19.956Z,16.20
2022-10-16T17:56:48.098Z,16.30
2022-10-16T18:01:46.107Z,16.30
2022-10-16T18:04:16.240Z,16.20
2022-10-16T18:06:44.623Z,16.10
2022-10-16T18:09:15.304Z,16.10
2022-10-16T18:14:14.171Z,16.10
2022-10-16T18:19:11.056Z,16.10
2022-10-16T18:21:37.988Z,16.10
2022-10-16T18:24:05.295Z,16.00
2022-10-16T18:26:33.331Z,16.00
2022-10-16T18:31:29.366Z,16.00
2022-10-16T18:36:29.784Z,16.00
2022-10-16T18:38:57.629Z,15.90
2022-10-16T18:41:25.308Z,15.80
2022-10-16T18:43:52.434Z,15.80
2022-10-16T18:46:21.579Z,15.80
2022-10-16T18:48:50.135Z,15.90
2022-10-16T18:53:47.329Z,15.70
2022-10-16T18:56:19.111Z,15.70
2022-10-16T18:58:48.771Z,15.70
2022-10-16T19:01:24.485Z,15.60
2022-10-16T19:04:03.663Z,15.70
2022-10-16T19:06:34.471Z,15.70
2022-10-16T19:09:01.466Z,15.70
2022-10-16T19:11:28.568Z,15.70
2022-10-16T19:13:57.719Z,15.60
2022-10-16T19:16:31.099Z,15.70
2022-10-16T19:19:01.419Z,15.70
2022-10-16T19:21:29.496Z,15.60
2022-10-16T19:23:59.576Z,15.70
2022-10-16T19:26:28.028Z,15.60
2022-10-16T19:29:00.955Z,15.60
2022-10-16T19:31:32.961Z,15.40
2022-10-16T19:34:01.440Z,15.60
2022-10-16T19:36:30.778Z,15.60
2022-10-16T19:39:00.302Z,15.70
2022-10-16T19:41:28.996Z,15.70
2022-10-16T19:44:00.356Z,15.80
2022-10-16T19:46:27.377Z,15.70
2022-10-16T19:48:59.263Z,15.50
2022-10-16T19:51:27.086Z,15.60
2022-10-16T19:53:56.705Z,15.40
2022-10-16T19:56:24.956Z,15.30
2022-10-16T19:58:53.137Z,15.10
2022-10-16T20:01:21.110Z,15.30
2022-10-16T20:03:48.775Z,15.30
2022-10-16T20:06:16.325Z,15.20
2022-10-16T20:08:45.713Z,15.30
2022-10-16T20:11:15.770Z,15.30
2022-10-16T20:16:12.126Z,15.40
2022-10-16T20:18:39.827Z,15.30
2022-10-16T20:21:18.538Z,15.10
2022-10-16T20:23:47.589Z,15.00
2022-10-16T20:26:15.121Z,14.90
2022-10-16T20:28:43.258Z,14.80
2022-10-16T20:31:18.799Z,15.00
2022-10-16T20:33:45.927Z,15.20
2022-10-16T20:36:14.461Z,15.20
2022-10-16T20:38:42.589Z,15.20
2022-10-16T20:41:10.593Z,15.20
2022-10-16T20:43:41.276Z,15.10
2022-10-16T20:46:09.859Z,14.90
2022-10-16T20:48:37.079Z,15.10
2022-10-16T20:51:15.001Z,15.20
2022-10-16T20:56:09.447Z,15.10
2022-10-16T20:58:37.517Z,15.10
2022-10-16T21:01:10.216Z,15.10
2022-10-16T21:03:38.290Z,15.00
2022-10-16T21:06:09.863Z,15.10
2022-10-16T21:08:42.389Z,14.90
2022-10-16T21:11:23.149Z,14.80
2022-10-16T21:13:53.107Z,14.80
2022-10-16T21:16:20.350Z,14.80
2022-10-16T21:18:47.471Z,14.70
2022-10-16T21:21:23.044Z,14.60
2022-10-16T21:23:50.872Z,14.60
2022-10-16T21:26:23.266Z,14.60
2022-10-16T21:28:50.322Z,14.40
2022-10-16T21:31:19.491Z,14.50
2022-10-16T21:33:47.607Z,14.30
2022-10-16T21:36:25.419Z,14.60
2022-10-16T21:41:22.710Z,14.50
2022-10-16T21:43:50.852Z,14.40
2022-10-16T21:46:19.874Z,14.30
2022-10-16T21:48:47.245Z,14.20
2022-10-16T21:51:18.207Z,14.30
2022-10-16T21:53:45.359Z,14.10
2022-10-16T21:56:15.838Z,14.10
2022-10-16T21:58:43.506Z,14.00
2022-10-16T22:01:12.571Z,13.90
2022-10-16T22:06:08.731Z,14.00
2022-10-16T22:08:38.240Z,14.10
2022-10-16T22:11:20.393Z,14.00
2022-10-16T22:16:25.539Z,13.80
2022-10-16T22:18:53.761Z,13.80
2022-10-16T22:21:20.807Z,13.80
2022-10-16T22:23:48.069Z,13.80
2022-10-16T22:26:15.194Z,13.90
2022-10-16T22:31:12.185Z,14.00
2022-10-16T22:36:08.802Z,14.20
2022-10-16T22:38:37.063Z,14.20
2022-10-16T22:41:12.121Z,14.10
2022-10-16T22:43:42.794Z,14.10
2022-10-16T22:46:15.673Z,14.20
2022-10-16T22:48:43.194Z,14.20
2022-10-16T22:51:15.724Z,14.00
2022-10-16T22:53:45.221Z,14.10
2022-10-16T22:56:12.819Z,14.10
2022-10-16T22:58:40.002Z,13.90
2022-10-16T23:01:22.898Z,13.60
2022-10-16T23:03:50.819Z,13.60
2022-10-16T23:06:17.699Z,13.70
2022-10-16T23:08:44.772Z,13.80
2022-10-16T23:11:13.084Z,13.80
2022-10-16T23:13:45.546Z,13.90
2022-10-16T23:16:14.757Z,13.90
2022-10-16T23:18:42.532Z,13.80
2022-10-16T23:21:12.613Z,13.70
2022-10-16T23:23:40.202Z,13.50
2022-10-16T23:26:18.895Z,13.50
2022-10-16T23:28:46.202Z,13.50
2022-10-16T23:31:14.130Z,13.50
2022-10-16T23:33:41.330Z,13.70
2022-10-16T23:36:11.200Z,13.70
2022-10-16T23:38:38.549Z,13.70
2022-10-16T23:41:05.944Z,13.60
2022-10-16T23:46:00.679Z,13.30
2022-10-16T23:48:27.905Z,13.30
2022-10-16T23:50:54.820Z,13.10
2022-10-16T23:53:21.794Z,13.20
2022-10-16T23:55:48.683Z,13.10
2022-10-16T23:58:15.896Z,13.00
